sensor_id;sensor_type;location;lat;lon;timestamp;P1;durP1;ratioP1;P2;durP2;ratioP2
71838;SDS011;59687;37.520;15.068;2022-07-29T00:02:08;16.25;;;10.32;;
71838;SDS011;59687;37.520;15.068;2022-07-29T00:04:35;19.53;;;10.00;;
71838;SDS011;59687;37.520;15.068;2022-07-29T00:07:03;18.67;;;10.70;;
71838;SDS011;59687;37.520;15.068;2022-07-29T00:09:31;18.85;;;10.23;;
71838;SDS011;59687;37.520;15.068;2022-07-29T00:12:00;17.65;;;10.70;;
71838;SDS011;59687;37.520;15.068;2022-07-29T00:14:27;16.50;;;10.82;;
71838;SDS011;59687;37.520;15.068;2022-07-29T00:16:55;17.73;;;11.13;;
71838;SDS011;59687;37.520;15.068;2022-07-29T00:19:25;16.33;;;10.70;;
71838;SDS011;59687;37.520;15.068;2022-07-29T00:21:53;15.50;;;10.95;;
71838;SDS011;59687;37.520;15.068;2022-07-29T00:24:21;15.70;;;10.45;;
71838;SDS011;59687;37.520;15.068;2022-07-29T00:26:49;19.75;;;11.55;;
71838;SDS011;59687;37.520;15.068;2022-07-29T00:29:16;15.27;;;9.57;;
71838;SDS011;59687;37.520;15.068;2022-07-29T00:31:58;18.17;;;10.93;;
71838;SDS011;59687;37.520;15.068;2022-07-29T00:34:29;17.38;;;10.98;;
71838;SDS011;59687;37.520;15.068;2022-07-29T00:37:16;14.40;;;10.02;;
71838;SDS011;59687;37.520;15.068;2022-07-29T00:39:44;17.70;;;11.48;;
71838;SDS011;59687;37.520;15.068;2022-07-29T00:42:11;15.77;;;10.33;;
71838;SDS011;59687;37.520;15.068;2022-07-29T00:44:39;16.10;;;10.30;;
71838;SDS011;59687;37.520;15.068;2022-07-29T00:47:09;16.25;;;11.38;;
71838;SDS011;59687;37.520;15.068;2022-07-29T00:49:38;23.77;;;11.20;;
71838;SDS011;59687;37.520;15.068;2022-07-29T00:52:07;19.55;;;11.40;;
71838;SDS011;59687;37.520;15.068;2022-07-29T00:54:38;21.17;;;10.60;;
71838;SDS011;59687;37.520;15.068;2022-07-29T00:57:06;15.45;;;10.50;;
71838;SDS011;59687;37.520;15.068;2022-07-29T00:59:35;15.63;;;10.68;;
71838;SDS011;59687;37.520;15.068;2022-07-29T01:02:02;16.83;;;11.05;;
71838;SDS011;59687;37.520;15.068;2022-07-29T01:04:30;17.38;;;11.80;;
71838;SDS011;59687;37.520;15.068;2022-07-29T01:07:00;16.63;;;10.80;;
71838;SDS011;59687;37.520;15.068;2022-07-29T01:09:29;18.23;;;11.50;;
71838;SDS011;59687;37.520;15.068;2022-07-29T01:11:59;19.05;;;10.90;;
71838;SDS011;59687;37.520;15.068;2022-07-29T01:14:28;15.43;;;10.88;;
71838;SDS011;59687;37.520;15.068;2022-07-29T01:16:58;18.67;;;10.82;;
71838;SDS011;59687;37.520;15.068;2022-07-29T01:28:01;16.88;;;10.35;;
71838;SDS011;59687;37.520;15.068;2022-07-29T01:30:52;17.17;;;10.85;;
71838;SDS011;59687;37.520;15.068;2022-07-29T01:33:20;18.37;;;11.10;;
71838;SDS011;59687;37.520;15.068;2022-07-29T01:36:11;15.18;;;10.40;;
71838;SDS011;59687;37.520;15.068;2022-07-29T01:38:44;16.42;;;10.80;;
71838;SDS011;59687;37.520;15.068;2022-07-29T01:41:18;15.02;;;9.73;;
71838;SDS011;59687;37.520;15.068;2022-07-29T01:43:56;14.15;;;9.43;;
71838;SDS011;59687;37.520;15.068;2022-07-29T01:46:36;13.37;;;9.07;;
71838;SDS011;59687;37.520;15.068;2022-07-29T01:49:08;13.32;;;8.73;;
71838;SDS011;59687;37.520;15.068;2022-07-29T01:51:41;14.18;;;8.77;;
71838;SDS011;59687;37.520;15.068;2022-07-29T01:56:56;10.90;;;8.70;;
71838;SDS011;59687;37.520;15.068;2022-07-29T01:59:26;15.23;;;9.63;;
71838;SDS011;59687;37.520;15.068;2022-07-29T02:01:56;12.27;;;9.57;;
71838;SDS011;59687;37.520;15.068;2022-07-29T02:04:25;12.00;;;8.88;;
71838;SDS011;59687;37.520;15.068;2022-07-29T02:07:00;14.15;;;8.60;;
71838;SDS011;59687;37.520;15.068;2022-07-29T02:09:31;16.33;;;9.40;;
71838;SDS011;59687;37.520;15.068;2022-07-29T02:11:59;12.53;;;8.30;;
71838;SDS011;59687;37.520;15.068;2022-07-29T02:14:29;13.75;;;8.55;;
71838;SDS011;59687;37.520;15.068;2022-07-29T02:16:59;16.23;;;8.88;;
71838;SDS011;59687;37.520;15.068;2022-07-29T02:19:29;11.65;;;8.55;;
71838;SDS011;59687;37.520;15.068;2022-07-29T02:22:02;12.68;;;9.02;;
71838;SDS011;59687;37.520;15.068;2022-07-29T02:24:32;14.30;;;9.33;;
71838;SDS011;59687;37.520;15.068;2022-07-29T02:27:00;12.77;;;9.02;;
71838;SDS011;59687;37.520;15.068;2022-07-29T02:29:28;13.32;;;8.68;;
71838;SDS011;59687;37.520;15.068;2022-07-29T02:31:58;14.02;;;9.80;;
71838;SDS011;59687;37.520;15.068;2022-07-29T02:34:28;11.85;;;8.60;;
71838;SDS011;59687;37.520;15.068;2022-07-29T02:36:56;11.70;;;9.10;;
71838;SDS011;59687;37.520;15.068;2022-07-29T02:39:24;13.20;;;9.18;;
71838;SDS011;59687;37.520;15.068;2022-07-29T02:41:57;12.38;;;8.77;;
71838;SDS011;59687;37.520;15.068;2022-07-29T02:44:29;13.60;;;9.45;;
71838;SDS011;59687;37.520;15.068;2022-07-29T02:47:47;12.93;;;8.68;;
71838;SDS011;59687;37.520;15.068;2022-07-29T03:00:03;13.75;;;9.23;;
71838;SDS011;59687;37.520;15.068;2022-07-29T03:02:35;14.87;;;9.43;;
71838;SDS011;59687;37.520;15.068;2022-07-29T03:05:06;11.63;;;9.20;;
71838;SDS011;59687;37.520;15.068;2022-07-29T03:07:46;14.90;;;10.02;;
71838;SDS011;59687;37.520;15.068;2022-07-29T03:10:23;12.32;;;8.65;;
71838;SDS011;59687;37.520;15.068;2022-07-29T03:12:54;13.38;;;9.77;;
71838;SDS011;59687;37.520;15.068;2022-07-29T03:15:25;13.23;;;9.70;;
71838;SDS011;59687;37.520;15.068;2022-07-29T03:17:54;10.90;;;8.82;;
71838;SDS011;59687;37.520;15.068;2022-07-29T03:20:22;16.00;;;9.35;;
71838;SDS011;59687;37.520;15.068;2022-07-29T03:22:52;10.65;;;8.77;;
71838;SDS011;59687;37.520;15.068;2022-07-29T03:25:19;14.23;;;9.82;;
71838;SDS011;59687;37.520;15.068;2022-07-29T03:27:52;13.47;;;9.17;;
71838;SDS011;59687;37.520;15.068;2022-07-29T03:30:19;14.93;;;10.18;;
71838;SDS011;59687;37.520;15.068;2022-07-29T03:32:46;13.50;;;9.63;;
71838;SDS011;59687;37.520;15.068;2022-07-29T03:35:13;13.85;;;10.27;;
71838;SDS011;59687;37.520;15.068;2022-07-29T03:37:43;15.77;;;10.10;;
71838;SDS011;59687;37.520;15.068;2022-07-29T03:40:13;12.67;;;9.73;;
71838;SDS011;59687;37.520;15.068;2022-07-29T03:42:49;15.50;;;10.10;;
71838;SDS011;59687;37.520;15.068;2022-07-29T03:45:18;13.38;;;10.05;;
71838;SDS011;59687;37.520;15.068;2022-07-29T03:47:47;14.40;;;9.38;;
71838;SDS011;59687;37.520;15.068;2022-07-29T03:50:23;13.27;;;9.68;;
71838;SDS011;59687;37.520;15.068;2022-07-29T03:52:50;14.80;;;9.83;;
71838;SDS011;59687;37.520;15.068;2022-07-29T03:55:17;14.60;;;9.75;;
71838;SDS011;59687;37.520;15.068;2022-07-29T03:57:46;14.65;;;9.05;;
71838;SDS011;59687;37.520;15.068;2022-07-29T04:00:14;13.45;;;9.43;;
71838;SDS011;59687;37.520;15.068;2022-07-29T04:02:44;10.88;;;8.40;;
71838;SDS011;59687;37.520;15.068;2022-07-29T04:05:16;14.53;;;9.30;;
71838;SDS011;59687;37.520;15.068;2022-07-29T04:07:44;14.55;;;8.93;;
71838;SDS011;59687;37.520;15.068;2022-07-29T04:10:12;14.48;;;9.57;;
71838;SDS011;59687;37.520;15.068;2022-07-29T04:12:39;14.48;;;8.90;;
71838;SDS011;59687;37.520;15.068;2022-07-29T04:15:07;14.25;;;10.23;;
71838;SDS011;59687;37.520;15.068;2022-07-29T04:17:37;14.40;;;9.47;;
71838;SDS011;59687;37.520;15.068;2022-07-29T04:20:05;13.50;;;8.70;;
71838;SDS011;59687;37.520;15.068;2022-07-29T04:22:34;15.02;;;9.30;;
71838;SDS011;59687;37.520;15.068;2022-07-29T04:25:03;11.73;;;8.57;;
71838;SDS011;59687;37.520;15.068;2022-07-29T04:27:30;13.80;;;9.15;;
71838;SDS011;59687;37.520;15.068;2022-07-29T04:29:58;11.10;;;8.17;;
71838;SDS011;59687;37.520;15.068;2022-07-29T04:32:25;14.30;;;8.95;;
71838;SDS011;59687;37.520;15.068;2022-07-29T04:34:52;15.55;;;8.32;;
71838;SDS011;59687;37.520;15.068;2022-07-29T04:37:20;14.80;;;7.55;;
71838;SDS011;59687;37.520;15.068;2022-07-29T04:39:47;11.13;;;7.68;;
71838;SDS011;59687;37.520;15.068;2022-07-29T04:42:15;12.27;;;8.23;;
71838;SDS011;59687;37.520;15.068;2022-07-29T04:44:42;11.07;;;7.57;;
71838;SDS011;59687;37.520;15.068;2022-07-29T04:47:10;11.68;;;8.18;;
71838;SDS011;59687;37.520;15.068;2022-07-29T04:49:39;14.40;;;8.73;;
71838;SDS011;59687;37.520;15.068;2022-07-29T04:52:07;14.60;;;9.13;;
71838;SDS011;59687;37.520;15.068;2022-07-29T04:54:35;16.60;;;7.80;;
71838;SDS011;59687;37.520;15.068;2022-07-29T04:57:02;11.48;;;7.40;;
71838;SDS011;59687;37.520;15.068;2022-07-29T04:59:29;13.85;;;7.88;;
71838;SDS011;59687;37.520;15.068;2022-07-29T05:01:56;12.27;;;7.75;;
71838;SDS011;59687;37.520;15.068;2022-07-29T05:04:23;11.52;;;7.53;;
71838;SDS011;59687;37.520;15.068;2022-07-29T05:06:51;13.30;;;7.60;;
71838;SDS011;59687;37.520;15.068;2022-07-29T05:09:18;10.13;;;7.03;;
71838;SDS011;59687;37.520;15.068;2022-07-29T05:11:50;9.85;;;7.32;;
71838;SDS011;59687;37.520;15.068;2022-07-29T05:14:19;11.45;;;8.40;;
71838;SDS011;59687;37.520;15.068;2022-07-29T05:16:50;10.57;;;7.30;;
71838;SDS011;59687;37.520;15.068;2022-07-29T05:19:18;10.93;;;7.37;;
71838;SDS011;59687;37.520;15.068;2022-07-29T05:21:46;13.38;;;7.22;;
71838;SDS011;59687;37.520;15.068;2022-07-29T05:24:14;9.80;;;7.32;;
71838;SDS011;59687;37.520;15.068;2022-07-29T05:26:44;14.00;;;8.20;;
71838;SDS011;59687;37.520;15.068;2022-07-29T05:29:10;11.23;;;8.13;;
71838;SDS011;59687;37.520;15.068;2022-07-29T05:31:37;12.97;;;7.90;;
71838;SDS011;59687;37.520;15.068;2022-07-29T05:34:04;12.85;;;7.85;;
71838;SDS011;59687;37.520;15.068;2022-07-29T05:36:31;10.70;;;7.80;;
71838;SDS011;59687;37.520;15.068;2022-07-29T05:38:58;15.18;;;8.07;;
71838;SDS011;59687;37.520;15.068;2022-07-29T05:41:25;12.60;;;8.32;;
71838;SDS011;59687;37.520;15.068;2022-07-29T05:43:53;10.63;;;7.77;;
71838;SDS011;59687;37.520;15.068;2022-07-29T05:46:20;9.45;;;7.22;;
71838;SDS011;59687;37.520;15.068;2022-07-29T05:48:47;11.85;;;7.93;;
71838;SDS011;59687;37.520;15.068;2022-07-29T05:51:14;13.45;;;8.00;;
71838;SDS011;59687;37.520;15.068;2022-07-29T05:53:41;10.23;;;8.32;;
71838;SDS011;59687;37.520;15.068;2022-07-29T05:56:09;10.87;;;7.17;;
71838;SDS011;59687;37.520;15.068;2022-07-29T05:58:36;11.05;;;7.72;;
71838;SDS011;59687;37.520;15.068;2022-07-29T06:01:04;11.95;;;8.57;;
71838;SDS011;59687;37.520;15.068;2022-07-29T06:03:34;12.95;;;10.60;;
71838;SDS011;59687;37.520;15.068;2022-07-29T06:06:05;21.25;;;9.55;;
71838;SDS011;59687;37.520;15.068;2022-07-29T06:08:33;13.40;;;9.20;;
71838;SDS011;59687;37.520;15.068;2022-07-29T06:11:00;13.98;;;8.50;;
71838;SDS011;59687;37.520;15.068;2022-07-29T06:13:27;12.15;;;8.15;;
71838;SDS011;59687;37.520;15.068;2022-07-29T06:15:56;11.48;;;8.48;;
71838;SDS011;59687;37.520;15.068;2022-07-29T06:18:26;13.52;;;8.48;;
71838;SDS011;59687;37.520;15.068;2022-07-29T06:20:55;11.57;;;7.77;;
71838;SDS011;59687;37.520;15.068;2022-07-29T06:23:23;11.00;;;7.97;;
71838;SDS011;59687;37.520;15.068;2022-07-29T06:25:49;11.43;;;7.80;;
71838;SDS011;59687;37.520;15.068;2022-07-29T06:28:18;10.32;;;7.43;;
71838;SDS011;59687;37.520;15.068;2022-07-29T06:30:46;9.63;;;6.95;;
71838;SDS011;59687;37.520;15.068;2022-07-29T06:33:17;9.17;;;7.10;;
71838;SDS011;59687;37.520;15.068;2022-07-29T06:35:46;12.35;;;7.38;;
71838;SDS011;59687;37.520;15.068;2022-07-29T06:38:14;12.55;;;7.80;;
71838;SDS011;59687;37.520;15.068;2022-07-29T06:40:44;13.02;;;8.20;;
71838;SDS011;59687;37.520;15.068;2022-07-29T06:46:01;9.77;;;7.47;;
71838;SDS011;59687;37.520;15.068;2022-07-29T06:48:31;11.35;;;7.63;;
71838;SDS011;59687;37.520;15.068;2022-07-29T06:50:59;11.05;;;8.30;;
71838;SDS011;59687;37.520;15.068;2022-07-29T06:53:28;11.95;;;8.55;;
71838;SDS011;59687;37.520;15.068;2022-07-29T06:55:55;14.52;;;7.97;;
71838;SDS011;59687;37.520;15.068;2022-07-29T06:58:26;10.87;;;7.53;;
71838;SDS011;59687;37.520;15.068;2022-07-29T07:00:55;14.27;;;7.68;;
71838;SDS011;59687;37.520;15.068;2022-07-29T07:03:28;9.50;;;7.47;;
71838;SDS011;59687;37.520;15.068;2022-07-29T07:05:55;12.52;;;7.97;;
71838;SDS011;59687;37.520;15.068;2022-07-29T07:08:22;9.65;;;7.65;;
71838;SDS011;59687;37.520;15.068;2022-07-29T07:10:50;11.90;;;7.10;;
71838;SDS011;59687;37.520;15.068;2022-07-29T07:13:18;8.32;;;6.68;;
71838;SDS011;59687;37.520;15.068;2022-07-29T07:15:46;12.50;;;7.00;;
71838;SDS011;59687;37.520;15.068;2022-07-29T07:18:17;11.27;;;6.90;;
71838;SDS011;59687;37.520;15.068;2022-07-29T07:20:45;8.95;;;7.40;;
71838;SDS011;59687;37.520;15.068;2022-07-29T07:23:12;10.70;;;6.70;;
71838;SDS011;59687;37.520;15.068;2022-07-29T07:25:41;11.30;;;7.57;;
71838;SDS011;59687;37.520;15.068;2022-07-29T07:28:08;11.07;;;6.95;;
71838;SDS011;59687;37.520;15.068;2022-07-29T07:30:35;10.57;;;6.93;;
71838;SDS011;59687;37.520;15.068;2022-07-29T07:33:02;10.05;;;7.25;;
71838;SDS011;59687;37.520;15.068;2022-07-29T07:35:29;11.43;;;7.97;;
71838;SDS011;59687;37.520;15.068;2022-07-29T07:37:58;9.88;;;7.15;;
71838;SDS011;59687;37.520;15.068;2022-07-29T07:40:26;8.73;;;6.88;;
71838;SDS011;59687;37.520;15.068;2022-07-29T07:42:54;9.52;;;6.70;;
71838;SDS011;59687;37.520;15.068;2022-07-29T07:45:22;9.23;;;6.65;;
71838;SDS011;59687;37.520;15.068;2022-07-29T07:47:49;9.30;;;6.53;;
71838;SDS011;59687;37.520;15.068;2022-07-29T07:50:16;9.95;;;7.18;;
71838;SDS011;59687;37.520;15.068;2022-07-29T07:52:47;8.32;;;6.60;;
71838;SDS011;59687;37.520;15.068;2022-07-29T07:55:16;9.80;;;6.50;;
71838;SDS011;59687;37.520;15.068;2022-07-29T07:57:46;11.02;;;6.82;;
71838;SDS011;59687;37.520;15.068;2022-07-29T08:00:14;11.27;;;6.03;;
71838;SDS011;59687;37.520;15.068;2022-07-29T08:02:46;9.93;;;6.72;;
71838;SDS011;59687;37.520;15.068;2022-07-29T08:05:13;10.18;;;7.60;;
71838;SDS011;59687;37.520;15.068;2022-07-29T08:07:45;10.68;;;6.82;;
71838;SDS011;59687;37.520;15.068;2022-07-29T08:10:13;11.43;;;6.90;;
71838;SDS011;59687;37.520;15.068;2022-07-29T08:13:04;9.87;;;6.40;;
71838;SDS011;59687;37.520;15.068;2022-07-29T08:15:38;10.43;;;7.20;;
71838;SDS011;59687;37.520;15.068;2022-07-29T08:18:08;9.15;;;7.00;;
71838;SDS011;59687;37.520;15.068;2022-07-29T08:20:40;11.15;;;6.13;;
71838;SDS011;59687;37.520;15.068;2022-07-29T08:23:08;10.70;;;6.38;;
71838;SDS011;59687;37.520;15.068;2022-07-29T08:25:36;9.37;;;6.50;;
71838;SDS011;59687;37.520;15.068;2022-07-29T08:28:06;8.75;;;6.55;;
71838;SDS011;59687;37.520;15.068;2022-07-29T08:30:36;8.57;;;7.03;;
71838;SDS011;59687;37.520;15.068;2022-07-29T08:33:03;9.77;;;6.78;;
71838;SDS011;59687;37.520;15.068;2022-07-29T08:35:30;9.73;;;6.03;;
71838;SDS011;59687;37.520;15.068;2022-07-29T08:38:00;8.60;;;6.23;;
71838;SDS011;59687;37.520;15.068;2022-07-29T08:40:29;9.32;;;6.65;;
71838;SDS011;59687;37.520;15.068;2022-07-29T08:43:06;8.65;;;6.28;;
71838;SDS011;59687;37.520;15.068;2022-07-29T08:45:41;9.32;;;5.60;;
71838;SDS011;59687;37.520;15.068;2022-07-29T08:48:19;8.15;;;5.88;;
71838;SDS011;59687;37.520;15.068;2022-07-29T08:50:54;10.40;;;5.97;;
71838;SDS011;59687;37.520;15.068;2022-07-29T08:53:26;10.35;;;6.30;;
71838;SDS011;59687;37.520;15.068;2022-07-29T08:55:54;9.90;;;5.75;;
71838;SDS011;59687;37.520;15.068;2022-07-29T08:58:25;9.20;;;5.55;;
71838;SDS011;59687;37.520;15.068;2022-07-29T09:00:54;9.32;;;5.78;;
71838;SDS011;59687;37.520;15.068;2022-07-29T09:03:23;7.63;;;5.50;;
71838;SDS011;59687;37.520;15.068;2022-07-29T09:05:51;9.00;;;5.78;;
71838;SDS011;59687;37.520;15.068;2022-07-29T09:08:19;8.48;;;5.68;;
71838;SDS011;59687;37.520;15.068;2022-07-29T09:10:47;7.55;;;5.30;;
71838;SDS011;59687;37.520;15.068;2022-07-29T09:13:15;8.57;;;5.90;;
71838;SDS011;59687;37.520;15.068;2022-07-29T09:15:46;8.17;;;5.73;;
71838;SDS011;59687;37.520;15.068;2022-07-29T09:18:32;8.70;;;5.47;;
71838;SDS011;59687;37.520;15.068;2022-07-29T09:21:10;7.93;;;5.70;;
71838;SDS011;59687;37.520;15.068;2022-07-29T09:24:13;10.50;;;5.85;;
71838;SDS011;59687;37.520;15.068;2022-07-29T09:26:41;7.97;;;5.10;;
71838;SDS011;59687;37.520;15.068;2022-07-29T09:29:14;9.90;;;5.43;;
71838;SDS011;59687;37.520;15.068;2022-07-29T09:31:46;7.50;;;5.35;;
71838;SDS011;59687;37.520;15.068;2022-07-29T09:34:15;8.25;;;5.28;;
71838;SDS011;59687;37.520;15.068;2022-07-29T09:36:44;8.55;;;5.65;;
71838;SDS011;59687;37.520;15.068;2022-07-29T09:39:13;7.53;;;6.03;;
71838;SDS011;59687;37.520;15.068;2022-07-29T09:41:54;8.27;;;5.23;;
71838;SDS011;59687;37.520;15.068;2022-07-29T09:44:25;9.18;;;5.57;;
71838;SDS011;59687;37.520;15.068;2022-07-29T09:46:53;8.98;;;5.60;;
71838;SDS011;59687;37.520;15.068;2022-07-29T09:49:35;8.32;;;5.50;;
71838;SDS011;59687;37.520;15.068;2022-07-29T09:52:28;8.13;;;5.95;;
71838;SDS011;59687;37.520;15.068;2022-07-29T09:55:07;10.50;;;6.03;;
71838;SDS011;59687;37.520;15.068;2022-07-29T09:57:38;9.43;;;5.82;;
71838;SDS011;59687;37.520;15.068;2022-07-29T10:00:07;8.85;;;6.18;;
71838;SDS011;59687;37.520;15.068;2022-07-29T10:02:52;10.52;;;5.70;;
71838;SDS011;59687;37.520;15.068;2022-07-29T10:05:27;7.50;;;5.35;;
71838;SDS011;59687;37.520;15.068;2022-07-29T10:07:55;10.83;;;5.57;;
71838;SDS011;59687;37.520;15.068;2022-07-29T10:10:26;10.13;;;5.50;;
71838;SDS011;59687;37.520;15.068;2022-07-29T10:12:59;9.38;;;6.03;;
71838;SDS011;59687;37.520;15.068;2022-07-29T10:15:36;8.35;;;5.47;;
71838;SDS011;59687;37.520;15.068;2022-07-29T10:18:07;9.27;;;6.03;;
71838;SDS011;59687;37.520;15.068;2022-07-29T10:20:35;7.23;;;5.37;;
71838;SDS011;59687;37.520;15.068;2022-07-29T10:23:04;8.45;;;5.30;;
71838;SDS011;59687;37.520;15.068;2022-07-29T10:25:32;8.50;;;5.47;;
71838;SDS011;59687;37.520;15.068;2022-07-29T10:28:00;8.82;;;5.72;;
71838;SDS011;59687;37.520;15.068;2022-07-29T10:30:29;8.77;;;5.75;;
71838;SDS011;59687;37.520;15.068;2022-07-29T10:33:18;7.83;;;5.20;;
71838;SDS011;59687;37.520;15.068;2022-07-29T10:39:04;7.00;;;5.15;;
71838;SDS011;59687;37.520;15.068;2022-07-29T10:41:56;10.90;;;5.40;;
71838;SDS011;59687;37.520;15.068;2022-07-29T10:44:32;8.15;;;5.53;;
71838;SDS011;59687;37.520;15.068;2022-07-29T10:47:01;8.47;;;5.63;;
71838;SDS011;59687;37.520;15.068;2022-07-29T10:49:28;9.90;;;8.50;;
71838;SDS011;59687;37.520;15.068;2022-07-29T10:52:00;7.55;;;5.15;;
71838;SDS011;59687;37.520;15.068;2022-07-29T11:02:41;7.32;;;4.88;;
71838;SDS011;59687;37.520;15.068;2022-07-29T11:05:11;8.20;;;6.07;;
71838;SDS011;59687;37.520;15.068;2022-07-29T11:13:47;8.50;;;5.50;;
71838;SDS011;59687;37.520;15.068;2022-07-29T11:16:21;8.35;;;5.40;;
71838;SDS011;59687;37.520;15.068;2022-07-29T11:21:40;7.03;;;5.20;;
71838;SDS011;59687;37.520;15.068;2022-07-29T11:24:13;13.23;;;6.07;;
71838;SDS011;59687;37.520;15.068;2022-07-29T11:26:44;8.87;;;5.43;;
71838;SDS011;59687;37.520;15.068;2022-07-29T11:29:16;7.95;;;5.45;;
71838;SDS011;59687;37.520;15.068;2022-07-29T11:31:51;7.13;;;4.90;;
71838;SDS011;59687;37.520;15.068;2022-07-29T11:40:25;9.93;;;6.00;;
71838;SDS011;59687;37.520;15.068;2022-07-29T11:42:36;8.02;;;5.03;;
71838;SDS011;59687;37.520;15.068;2022-07-29T11:45:07;8.43;;;5.85;;
71838;SDS011;59687;37.520;15.068;2022-07-29T11:50:30;7.82;;;5.40;;
71838;SDS011;59687;37.520;15.068;2022-07-29T11:53:03;6.83;;;4.90;;
71838;SDS011;59687;37.520;15.068;2022-07-29T11:55:39;8.88;;;5.35;;
71838;SDS011;59687;37.520;15.068;2022-07-29T11:58:07;8.07;;;5.63;;
71838;SDS011;59687;37.520;15.068;2022-07-29T12:00:35;9.93;;;6.07;;
71838;SDS011;59687;37.520;15.068;2022-07-29T12:03:08;7.80;;;5.13;;
71838;SDS011;59687;37.520;15.068;2022-07-29T12:08:06;8.30;;;5.38;;
71838;SDS011;59687;37.520;15.068;2022-07-29T12:10:33;8.63;;;5.30;;
71838;SDS011;59687;37.520;15.068;2022-07-29T12:13:00;9.65;;;6.18;;
71838;SDS011;59687;37.520;15.068;2022-07-29T12:15:27;8.88;;;5.75;;
71838;SDS011;59687;37.520;15.068;2022-07-29T12:17:54;9.50;;;5.57;;
71838;SDS011;59687;37.520;15.068;2022-07-29T12:20:28;9.80;;;5.70;;
71838;SDS011;59687;37.520;15.068;2022-07-29T12:22:56;8.95;;;5.25;;
71838;SDS011;59687;37.520;15.068;2022-07-29T12:25:23;8.35;;;5.88;;
71838;SDS011;59687;37.520;15.068;2022-07-29T12:28:01;9.98;;;5.70;;
71838;SDS011;59687;37.520;15.068;2022-07-29T12:30:40;7.73;;;5.10;;
71838;SDS011;59687;37.520;15.068;2022-07-29T12:33:25;8.10;;;5.75;;
71838;SDS011;59687;37.520;15.068;2022-07-29T12:35:58;9.23;;;5.95;;
71838;SDS011;59687;37.520;15.068;2022-07-29T12:38:31;8.52;;;5.53;;
71838;SDS011;59687;37.520;15.068;2022-07-29T12:41:02;8.55;;;6.35;;
71838;SDS011;59687;37.520;15.068;2022-07-29T12:43:30;7.87;;;5.67;;
71838;SDS011;59687;37.520;15.068;2022-07-29T12:46:13;8.60;;;5.75;;
71838;SDS011;59687;37.520;15.068;2022-07-29T12:48:44;8.65;;;5.65;;
71838;SDS011;59687;37.520;15.068;2022-07-29T12:51:11;8.07;;;6.25;;
71838;SDS011;59687;37.520;15.068;2022-07-29T12:54:02;7.78;;;5.70;;
71838;SDS011;59687;37.520;15.068;2022-07-29T12:56:40;9.00;;;6.60;;
71838;SDS011;59687;37.520;15.068;2022-07-29T12:59:20;9.40;;;5.82;;
71838;SDS011;59687;37.520;15.068;2022-07-29T13:01:49;7.40;;;5.63;;
71838;SDS011;59687;37.520;15.068;2022-07-29T13:04:28;9.80;;;5.60;;
71838;SDS011;59687;37.520;15.068;2022-07-29T13:07:04;7.22;;;5.28;;
71838;SDS011;59687;37.520;15.068;2022-07-29T13:09:42;10.63;;;5.33;;
71838;SDS011;59687;37.520;15.068;2022-07-29T13:12:12;8.93;;;5.63;;
71838;SDS011;59687;37.520;15.068;2022-07-29T13:14:41;9.38;;;6.00;;
71838;SDS011;59687;37.520;15.068;2022-07-29T13:17:12;8.60;;;5.60;;
71838;SDS011;59687;37.520;15.068;2022-07-29T13:19:51;8.82;;;5.28;;
71838;SDS011;59687;37.520;15.068;2022-07-29T13:22:20;10.63;;;4.90;;
71838;SDS011;59687;37.520;15.068;2022-07-29T13:24:56;7.75;;;5.22;;
71838;SDS011;59687;37.520;15.068;2022-07-29T13:27:36;7.65;;;5.03;;
71838;SDS011;59687;37.520;15.068;2022-07-29T13:30:08;8.57;;;5.25;;
71838;SDS011;59687;37.520;15.068;2022-07-29T13:32:38;6.72;;;4.97;;
71838;SDS011;59687;37.520;15.068;2022-07-29T13:35:06;8.70;;;4.60;;
71838;SDS011;59687;37.520;15.068;2022-07-29T13:37:35;7.75;;;4.78;;
71838;SDS011;59687;37.520;15.068;2022-07-29T13:40:07;6.60;;;4.50;;
71838;SDS011;59687;37.520;15.068;2022-07-29T13:42:35;6.68;;;4.80;;
71838;SDS011;59687;37.520;15.068;2022-07-29T13:45:03;8.40;;;5.13;;
71838;SDS011;59687;37.520;15.068;2022-07-29T13:47:31;9.30;;;4.97;;
71838;SDS011;59687;37.520;15.068;2022-07-29T13:50:03;9.13;;;5.20;;
71838;SDS011;59687;37.520;15.068;2022-07-29T13:52:30;9.35;;;4.88;;
71838;SDS011;59687;37.520;15.068;2022-07-29T13:54:57;10.82;;;5.63;;
71838;SDS011;59687;37.520;15.068;2022-07-29T13:57:33;9.90;;;5.63;;
71838;SDS011;59687;37.520;15.068;2022-07-29T14:00:00;7.40;;;5.23;;
71838;SDS011;59687;37.520;15.068;2022-07-29T14:02:33;7.13;;;4.95;;
71838;SDS011;59687;37.520;15.068;2022-07-29T14:05:07;6.68;;;4.93;;
71838;SDS011;59687;37.520;15.068;2022-07-29T14:07:39;9.27;;;5.53;;
71838;SDS011;59687;37.520;15.068;2022-07-29T14:10:06;8.43;;;4.78;;
71838;SDS011;59687;37.520;15.068;2022-07-29T14:12:34;7.93;;;5.00;;
71838;SDS011;59687;37.520;15.068;2022-07-29T14:15:01;7.55;;;4.90;;
71838;SDS011;59687;37.520;15.068;2022-07-29T14:17:28;7.70;;;5.35;;
71838;SDS011;59687;37.520;15.068;2022-07-29T14:19:55;7.93;;;5.03;;
71838;SDS011;59687;37.520;15.068;2022-07-29T14:22:22;7.32;;;5.15;;
71838;SDS011;59687;37.520;15.068;2022-07-29T14:24:49;9.70;;;4.93;;
71838;SDS011;59687;37.520;15.068;2022-07-29T14:27:16;9.30;;;5.25;;
71838;SDS011;59687;37.520;15.068;2022-07-29T14:29:43;7.80;;;5.22;;
71838;SDS011;59687;37.520;15.068;2022-07-29T14:32:10;7.78;;;4.90;;
71838;SDS011;59687;37.520;15.068;2022-07-29T14:34:38;9.23;;;5.30;;
71838;SDS011;59687;37.520;15.068;2022-07-29T14:37:06;6.83;;;4.80;;
71838;SDS011;59687;37.520;15.068;2022-07-29T14:39:34;8.20;;;5.53;;
71838;SDS011;59687;37.520;15.068;2022-07-29T14:42:07;8.85;;;5.72;;
71838;SDS011;59687;37.520;15.068;2022-07-29T14:44:34;7.85;;;5.03;;
71838;SDS011;59687;37.520;15.068;2022-07-29T14:47:01;9.82;;;5.32;;
71838;SDS011;59687;37.520;15.068;2022-07-29T14:49:29;9.87;;;5.40;;
71838;SDS011;59687;37.520;15.068;2022-07-29T14:51:56;11.10;;;5.65;;
71838;SDS011;59687;37.520;15.068;2022-07-29T14:54:24;10.55;;;5.70;;
71838;SDS011;59687;37.520;15.068;2022-07-29T14:56:53;7.88;;;5.30;;
71838;SDS011;59687;37.520;15.068;2022-07-29T14:59:23;9.07;;;5.32;;
71838;SDS011;59687;37.520;15.068;2022-07-29T15:01:51;8.33;;;5.20;;
71838;SDS011;59687;37.520;15.068;2022-07-29T15:04:18;7.80;;;5.45;;
71838;SDS011;59687;37.520;15.068;2022-07-29T15:06:45;8.18;;;5.50;;
71838;SDS011;59687;37.520;15.068;2022-07-29T15:09:13;9.20;;;5.20;;
71838;SDS011;59687;37.520;15.068;2022-07-29T15:11:40;7.35;;;5.20;;
71838;SDS011;59687;37.520;15.068;2022-07-29T15:14:07;8.67;;;4.83;;
71838;SDS011;59687;37.520;15.068;2022-07-29T15:16:35;8.52;;;5.45;;
71838;SDS011;59687;37.520;15.068;2022-07-29T15:19:04;8.40;;;5.68;;
71838;SDS011;59687;37.520;15.068;2022-07-29T15:21:31;8.35;;;5.47;;
71838;SDS011;59687;37.520;15.068;2022-07-29T15:23:59;6.82;;;5.40;;
71838;SDS011;59687;37.520;15.068;2022-07-29T15:26:27;9.07;;;5.53;;
71838;SDS011;59687;37.520;15.068;2022-07-29T15:28:54;8.02;;;5.65;;
71838;SDS011;59687;37.520;15.068;2022-07-29T15:31:22;9.35;;;5.55;;
71838;SDS011;59687;37.520;15.068;2022-07-29T15:33:49;8.52;;;5.38;;
71838;SDS011;59687;37.520;15.068;2022-07-29T15:36:18;9.23;;;5.78;;
71838;SDS011;59687;37.520;15.068;2022-07-29T15:39:01;8.57;;;5.77;;
71838;SDS011;59687;37.520;15.068;2022-07-29T15:41:28;8.80;;;6.40;;